sensor_id;sensor_type;location;lat;lon;timestamp;pressure;altitude;pressure_sealevel;temperature;humidity
30873;BME280;17579;42.690;2.586;2022-12-13T00:00:04;95796.50;;;5.86;68.38
30873;BME280;17579;42.690;2.586;2022-12-13T00:02:30;95794.84;;;5.85;68.52
30873;BME280;17579;42.690;2.586;2022-12-13T00:04:56;95796.50;;;5.86;68.67
30873;BME280;17579;42.690;2.586;2022-12-13T00:07:21;95799.13;;;5.86;68.84
30873;BME280;17579;42.690;2.586;2022-12-13T00:09:47;95805.88;;;5.89;68.86
30873;BME280;17579;42.690;2.586;2022-12-13T00:12:12;95799.63;;;5.90;69.05
30873;BME280;17579;42.690;2.586;2022-12-13T00:14:38;95799.31;;;5.93;69.04
30873;BME280;17579;42.690;2.586;2022-12-13T00:17:03;95806.38;;;5.93;69.08
30873;BME280;17579;42.690;2.586;2022-12-13T00:19:29;95789.13;;;5.90;69.32
30873;BME280;17579;42.690;2.586;2022-12-13T00:21:54;95793.56;;;5.89;69.30
30873;BME280;17579;42.690;2.586;2022-12-13T00:24:20;95798.81;;;5.89;69.53
30873;BME280;17579;42.690;2.586;2022-12-13T00:26:45;95786.34;;;5.92;69.30
30873;BME280;17579;42.690;2.586;2022-12-13T00:29:11;95783.72;;;5.92;69.30
30873;BME280;17579;42.690;2.586;2022-12-13T00:31:37;95773.53;;;5.88;69.36
30873;BME280;17579;42.690;2.586;2022-12-13T00:34:03;95775.03;;;5.91;69.65
30873;BME280;17579;42.690;2.586;2022-12-13T00:36:28;95779.00;;;5.95;69.64
30873;BME280;17579;42.690;2.586;2022-12-13T00:38:54;95772.50;;;5.99;69.76
30873;BME280;17579;42.690;2.586;2022-12-13T00:41:30;95767.91;;;6.01;69.61
30873;BME280;17579;42.690;2.586;2022-12-13T00:43:56;95744.97;;;6.03;69.44
30873;BME280;17579;42.690;2.586;2022-12-13T00:46:22;95734.91;;;5.99;69.61
30873;BME280;17579;42.690;2.586;2022-12-13T00:48:53;95739.56;;;5.87;69.30
30873;BME280;17579;42.690;2.586;2022-12-13T00:51:20;95739.88;;;5.84;69.60
30873;BME280;17579;42.690;2.586;2022-12-13T00:53:46;95733.66;;;5.85;69.52
30873;BME280;17579;42.690;2.586;2022-12-13T00:56:15;95745.63;;;5.87;69.96
30873;BME280;17579;42.690;2.586;2022-12-13T00:58:41;95743.06;;;5.96;69.94
30873;BME280;17579;42.690;2.586;2022-12-13T01:01:12;95723.31;;;6.01;69.82
30873;BME280;17579;42.690;2.586;2022-12-13T01:03:40;95706.91;;;6.07;69.68
30873;BME280;17579;42.690;2.586;2022-12-13T01:06:14;95692.19;;;6.06;69.38
30873;BME280;17579;42.690;2.586;2022-12-13T01:08:42;95704.66;;;6.13;69.76
30873;BME280;17579;42.690;2.586;2022-12-13T01:11:08;95707.81;;;6.16;69.90
30873;BME280;17579;42.690;2.586;2022-12-13T01:13:34;95705.84;;;6.18;69.96
30873;BME280;17579;42.690;2.586;2022-12-13T01:16:02;95719.78;;;6.19;69.85
30873;BME280;17579;42.690;2.586;2022-12-13T01:18:29;95718.44;;;6.15;69.94
30873;BME280;17579;42.690;2.586;2022-12-13T01:21:15;95721.53;;;6.10;69.88
30873;BME280;17579;42.690;2.586;2022-12-13T01:23:42;95748.81;;;6.17;69.80
30873;BME280;17579;42.690;2.586;2022-12-13T01:26:14;95738.13;;;6.11;69.53
30873;BME280;17579;42.690;2.586;2022-12-13T01:28:39;95732.19;;;6.09;69.52
30873;BME280;17579;42.690;2.586;2022-12-13T01:31:15;95734.34;;;6.05;69.60
30873;BME280;17579;42.690;2.586;2022-12-13T01:33:41;95726.47;;;6.05;69.66
30873;BME280;17579;42.690;2.586;2022-12-13T01:36:12;95731.19;;;6.01;69.50
30873;BME280;17579;42.690;2.586;2022-12-13T01:38:38;95732.00;;;6.02;69.64
30873;BME280;17579;42.690;2.586;2022-12-13T01:41:05;95746.91;;;6.01;69.64
30873;BME280;17579;42.690;2.586;2022-12-13T01:43:52;95756.34;;;5.94;69.60
30873;BME280;17579;42.690;2.586;2022-12-13T01:46:18;95748.88;;;5.99;69.59
30873;BME280;17579;42.690;2.586;2022-12-13T01:49:06;95738.28;;;5.91;69.59
30873;BME280;17579;42.690;2.586;2022-12-13T01:51:43;95751.09;;;5.94;69.82
30873;BME280;17579;42.690;2.586;2022-12-13T01:54:14;95754.78;;;6.01;69.90
30873;BME280;17579;42.690;2.586;2022-12-13T01:56:48;95739.56;;;6.05;69.80
30873;BME280;17579;42.690;2.586;2022-12-13T01:59:16;95727.09;;;6.07;69.82
30873;BME280;17579;42.690;2.586;2022-12-13T02:01:43;95723.53;;;6.08;69.91
30873;BME280;17579;42.690;2.586;2022-12-13T02:04:10;95713.66;;;6.10;70.01
30873;BME280;17579;42.690;2.586;2022-12-13T02:06:40;95707.94;;;6.06;69.95
30873;BME280;17579;42.690;2.586;2022-12-13T02:09:08;95720.72;;;6.10;70.01
30873;BME280;17579;42.690;2.586;2022-12-13T02:11:37;95708.75;;;6.07;69.91
30873;BME280;17579;42.690;2.586;2022-12-13T02:14:03;95689.72;;;6.05;69.49
30873;BME280;17579;42.690;2.586;2022-12-13T02:16:52;95694.06;;;5.96;69.79
30873;BME280;17579;42.690;2.586;2022-12-13T02:19:43;95700.22;;;5.87;69.75
30873;BME280;17579;42.690;2.586;2022-12-13T02:22:40;95714.03;;;5.89;69.91
30873;BME280;17579;42.690;2.586;2022-12-13T02:31:14;95733.06;;;5.73;69.70
30873;BME280;17579;42.690;2.586;2022-12-13T02:33:51;95754.06;;;5.73;69.88
30873;BME280;17579;42.690;2.586;2022-12-13T02:36:40;95758.19;;;5.76;69.97
30873;BME280;17579;42.690;2.586;2022-12-13T02:39:22;95759.53;;;5.80;69.87
30873;BME280;17579;42.690;2.586;2022-12-13T02:42:01;95773.31;;;5.82;69.88
30873;BME280;17579;42.690;2.586;2022-12-13T02:44:33;95748.25;;;5.87;69.99
30873;BME280;17579;42.690;2.586;2022-12-13T02:47:05;95742.03;;;5.88;69.75
30873;BME280;17579;42.690;2.586;2022-12-13T02:49:36;95754.81;;;5.83;69.68
30873;BME280;17579;42.690;2.586;2022-12-13T02:52:03;95751.50;;;5.81;69.91
30873;BME280;17579;42.690;2.586;2022-12-13T02:54:32;95743.63;;;5.81;69.84
30873;BME280;17579;42.690;2.586;2022-12-13T02:56:58;95733.66;;;5.85;69.89
30873;BME280;17579;42.690;2.586;2022-12-13T02:59:31;95702.78;;;5.79;69.61
30873;BME280;17579;42.690;2.586;2022-12-13T03:02:23;95738.44;;;5.63;69.73
30873;BME280;17579;42.690;2.586;2022-12-13T03:05:17;95741.06;;;5.63;69.63
30873;BME280;17579;42.690;2.586;2022-12-13T03:08:17;95776.72;;;5.56;69.71
30873;BME280;17579;42.690;2.586;2022-12-13T03:16:41;95759.34;;;5.55;69.99
30873;BME280;17579;42.690;2.586;2022-12-13T03:19:09;95784.59;;;5.56;69.93
30873;BME280;17579;42.690;2.586;2022-12-13T03:21:41;95774.09;;;5.56;69.93
30873;BME280;17579;42.690;2.586;2022-12-13T03:24:07;95739.16;;;5.55;69.85
30873;BME280;17579;42.690;2.586;2022-12-13T03:26:33;95785.56;;;5.55;69.89
30873;BME280;17579;42.690;2.586;2022-12-13T03:29:01;95749.50;;;5.57;69.93
30873;BME280;17579;42.690;2.586;2022-12-13T03:31:27;95752.13;;;5.57;69.94
30873;BME280;17579;42.690;2.586;2022-12-13T03:33:53;95753.78;;;5.58;69.90
30873;BME280;17579;42.690;2.586;2022-12-13T03:36:19;95743.44;;;5.57;69.86
30873;BME280;17579;42.690;2.586;2022-12-13T03:38:45;95765.38;;;5.55;69.79
30873;BME280;17579;42.690;2.586;2022-12-13T03:41:14;95746.72;;;5.59;69.86
30873;BME280;17579;42.690;2.586;2022-12-13T03:43:40;95751.38;;;5.65;69.95
30873;BME280;17579;42.690;2.586;2022-12-13T03:46:06;95759.09;;;5.66;69.84
30873;BME280;17579;42.690;2.586;2022-12-13T03:48:32;95755.47;;;5.67;69.79
30873;BME280;17579;42.690;2.586;2022-12-13T03:50:58;95755.34;;;5.69;69.87
30873;BME280;17579;42.690;2.586;2022-12-13T03:53:24;95749.97;;;5.70;69.48
30873;BME280;17579;42.690;2.586;2022-12-13T03:55:50;95734.50;;;5.67;69.46
30873;BME280;17579;42.690;2.586;2022-12-13T03:58:16;95740.06;;;5.64;69.56
30873;BME280;17579;42.690;2.586;2022-12-13T04:00:42;95734.00;;;5.64;69.37
30873;BME280;17579;42.690;2.586;2022-12-13T04:03:08;95746.22;;;5.55;69.34
30873;BME280;17579;42.690;2.586;2022-12-13T04:05:33;95752.06;;;5.49;69.41
30873;BME280;17579;42.690;2.586;2022-12-13T04:07:59;95750.56;;;5.46;69.83
30873;BME280;17579;42.690;2.586;2022-12-13T04:10:25;95757.00;;;5.52;69.91
30873;BME280;17579;42.690;2.586;2022-12-13T04:12:50;95732.00;;;5.58;69.74
30873;BME280;17579;42.690;2.586;2022-12-13T04:15:28;95748.91;;;5.63;69.86
30873;BME280;17579;42.690;2.586;2022-12-13T04:17:53;95749.13;;;5.70;69.70
30873;BME280;17579;42.690;2.586;2022-12-13T04:20:19;95739.16;;;5.73;69.65
30873;BME280;17579;42.690;2.586;2022-12-13T04:22:45;95741.47;;;5.77;69.75
30873;BME280;17579;42.690;2.586;2022-12-13T04:25:11;95761.34;;;5.79;69.58
30873;BME280;17579;42.690;2.586;2022-12-13T04:27:37;95765.44;;;5.82;69.42
30873;BME280;17579;42.690;2.586;2022-12-13T04:30:05;95776.78;;;5.82;69.54
30873;BME280;17579;42.690;2.586;2022-12-13T04:32:30;95772.72;;;5.88;69.83
30873;BME280;17579;42.690;2.586;2022-12-13T04:34:56;95763.72;;;5.90;69.50
30873;BME280;17579;42.690;2.586;2022-12-13T04:37:22;95775.69;;;5.93;69.73
30873;BME280;17579;42.690;2.586;2022-12-13T04:39:47;95773.91;;;5.94;69.46
30873;BME280;17579;42.690;2.586;2022-12-13T04:42:13;95764.69;;;5.89;69.24
30873;BME280;17579;42.690;2.586;2022-12-13T04:44:39;95766.63;;;5.87;69.22
30873;BME280;17579;42.690;2.586;2022-12-13T04:47:05;95766.94;;;5.84;69.26
30873;BME280;17579;42.690;2.586;2022-12-13T04:49:31;95762.97;;;5.80;69.55
30873;BME280;17579;42.690;2.586;2022-12-13T04:51:57;95776.09;;;5.80;69.47
30873;BME280;17579;42.690;2.586;2022-12-13T04:54:22;95756.59;;;5.83;69.41
30873;BME280;17579;42.690;2.586;2022-12-13T04:56:48;95764.47;;;5.83;69.66
30873;BME280;17579;42.690;2.586;2022-12-13T04:59:14;95764.84;;;5.88;69.64
30873;BME280;17579;42.690;2.586;2022-12-13T05:01:40;95761.38;;;5.87;69.61
30873;BME280;17579;42.690;2.586;2022-12-13T05:04:06;95776.84;;;5.90;69.56
30873;BME280;17579;42.690;2.586;2022-12-13T05:06:31;95782.09;;;5.90;69.35
30873;BME280;17579;42.690;2.586;2022-12-13T05:08:57;95794.53;;;5.88;69.60
30873;BME280;17579;42.690;2.586;2022-12-13T05:11:22;95793.41;;;5.91;69.51
30873;BME280;17579;42.690;2.586;2022-12-13T05:13:48;95793.56;;;5.89;69.76
30873;BME280;17579;42.690;2.586;2022-12-13T05:16:13;95785.31;;;5.84;69.33
30873;BME280;17579;42.690;2.586;2022-12-13T05:18:40;95781.47;;;5.79;69.55
30873;BME280;17579;42.690;2.586;2022-12-13T05:21:08;95789.34;;;5.79;69.71
30873;BME280;17579;42.690;2.586;2022-12-13T05:23:34;95781.19;;;5.82;69.71
30873;BME280;17579;42.690;2.586;2022-12-13T05:26:00;95787.78;;;5.86;69.59
30873;BME280;17579;42.690;2.586;2022-12-13T05:28:26;95786.00;;;5.86;69.67
30873;BME280;17579;42.690;2.586;2022-12-13T05:30:54;95786.81;;;5.87;69.80
30873;BME280;17579;42.690;2.586;2022-12-13T05:33:21;95795.50;;;5.87;69.82
30873;BME280;17579;42.690;2.586;2022-12-13T05:35:46;95783.22;;;5.88;69.70
30873;BME280;17579;42.690;2.586;2022-12-13T05:38:12;95801.59;;;5.88;69.78
30873;BME280;17579;42.690;2.586;2022-12-13T05:40:38;95791.25;;;5.86;69.25
30873;BME280;17579;42.690;2.586;2022-12-13T05:43:04;95806.75;;;5.80;69.51
30873;BME280;17579;42.690;2.586;2022-12-13T05:45:30;95804.44;;;5.77;69.63
30873;BME280;17579;42.690;2.586;2022-12-13T05:47:56;95793.13;;;5.76;69.69
30873;BME280;17579;42.690;2.586;2022-12-13T05:50:22;95795.75;;;5.76;69.93
30873;BME280;17579;42.690;2.586;2022-12-13T05:52:48;95796.72;;;5.75;69.60
30873;BME280;17579;42.690;2.586;2022-12-13T05:55:14;95780.28;;;5.73;69.71
30873;BME280;17579;42.690;2.586;2022-12-13T05:57:39;95779.31;;;5.74;69.89
30873;BME280;17579;42.690;2.586;2022-12-13T06:00:07;95794.56;;;5.70;69.77
30873;BME280;17579;42.690;2.586;2022-12-13T06:02:37;95796.28;;;5.62;69.45
30873;BME280;17579;42.690;2.586;2022-12-13T06:05:03;95797.25;;;5.61;69.39
30873;BME280;17579;42.690;2.586;2022-12-13T06:07:29;95791.63;;;5.55;69.61
30873;BME280;17579;42.690;2.586;2022-12-13T06:09:55;95804.72;;;5.55;69.55
30873;BME280;17579;42.690;2.586;2022-12-13T06:12:20;95810.44;;;5.51;69.48
30873;BME280;17579;42.690;2.586;2022-12-13T06:14:46;95789.59;;;5.49;69.42
30873;BME280;17579;42.690;2.586;2022-12-13T06:17:11;95794.16;;;5.47;69.42
30873;BME280;17579;42.690;2.586;2022-12-13T06:19:37;95783.66;;;5.47;69.35
30873;BME280;17579;42.690;2.586;2022-12-13T06:22:02;95791.16;;;5.42;69.41
30873;BME280;17579;42.690;2.586;2022-12-13T06:24:28;95793.09;;;5.40;69.28
30873;BME280;17579;42.690;2.586;2022-12-13T06:26:53;95799.41;;;5.29;68.86
30873;BME280;17579;42.690;2.586;2022-12-13T06:29:21;95787.84;;;5.22;69.26
30873;BME280;17579;42.690;2.586;2022-12-13T06:31:46;95799.16;;;5.23;69.41
30873;BME280;17579;42.690;2.586;2022-12-13T06:34:12;95799.84;;;5.25;69.36
30873;BME280;17579;42.690;2.586;2022-12-13T06:36:38;95802.63;;;5.23;69.32
30873;BME280;17579;42.690;2.586;2022-12-13T06:39:05;95803.72;;;5.20;69.41
30873;BME280;17579;42.690;2.586;2022-12-13T06:41:32;95801.94;;;5.21;69.20
30873;BME280;17579;42.690;2.586;2022-12-13T06:43:57;95804.41;;;5.23;69.37
30873;BME280;17579;42.690;2.586;2022-12-13T06:46:23;95792.94;;;5.24;69.18
30873;BME280;17579;42.690;2.586;2022-12-13T06:48:50;95796.25;;;5.26;69.38
30873;BME280;17579;42.690;2.586;2022-12-13T06:51:16;95784.78;;;5.27;69.30
30873;BME280;17579;42.690;2.586;2022-12-13T06:53:42;95795.81;;;5.30;69.85
30873;BME280;17579;42.690;2.586;2022-12-13T06:56:10;95794.66;;;5.33;69.88
30873;BME280;17579;42.690;2.586;2022-12-13T06:58:37;95789.66;;;5.40;70.04
30873;BME280;17579;42.690;2.586;2022-12-13T07:01:05;95781.19;;;5.46;70.20
30873;BME280;17579;42.690;2.586;2022-12-13T07:03:32;95776.03;;;5.54;70.31
30873;BME280;17579;42.690;2.586;2022-12-13T07:05:58;95774.75;;;5.58;70.42
30873;BME280;17579;42.690;2.586;2022-12-13T07:08:24;95769.22;;;5.61;70.34
30873;BME280;17579;42.690;2.586;2022-12-13T07:10:51;95782.88;;;5.65;70.44
30873;BME280;17579;42.690;2.586;2022-12-13T07:13:19;95794.56;;;5.70;70.94
30873;BME280;17579;42.690;2.586;2022-12-13T07:15:45;95793.13;;;5.76;70.93
30873;BME280;17579;42.690;2.586;2022-12-13T07:18:12;95782.03;;;5.82;71.21
30873;BME280;17579;42.690;2.586;2022-12-13T07:20:38;95783.56;;;5.93;71.42
30873;BME280;17579;42.690;2.586;2022-12-13T07:23:05;95791.53;;;6.01;71.63
30873;BME280;17579;42.690;2.586;2022-12-13T07:25:30;95800.44;;;6.09;71.60
30873;BME280;17579;42.690;2.586;2022-12-13T07:27:59;95808.56;;;6.15;71.55
30873;BME280;17579;42.690;2.586;2022-12-13T07:30:25;95800.06;;;6.21;71.76
30873;BME280;17579;42.690;2.586;2022-12-13T07:32:50;95816.34;;;6.25;71.55
30873;BME280;17579;42.690;2.586;2022-12-13T07:35:16;95807.16;;;6.29;71.35
30873;BME280;17579;42.690;2.586;2022-12-13T07:37:41;95812.94;;;6.33;72.07
30873;BME280;17579;42.690;2.586;2022-12-13T07:40:08;95815.63;;;6.41;71.97
30873;BME280;17579;42.690;2.586;2022-12-13T07:42:34;95804.84;;;6.52;72.48
30873;BME280;17579;42.690;2.586;2022-12-13T07:45:00;95822.13;;;6.63;72.64
30873;BME280;17579;42.690;2.586;2022-12-13T07:47:31;95819.19;;;6.66;72.13
30873;BME280;17579;42.690;2.586;2022-12-13T07:49:57;95825.16;;;6.76;72.73
30873;BME280;17579;42.690;2.586;2022-12-13T07:52:23;95816.50;;;6.84;72.70
30873;BME280;17579;42.690;2.586;2022-12-13T07:54:49;95829.81;;;6.91;72.80
30873;BME280;17579;42.690;2.586;2022-12-13T07:57:14;95827.25;;;6.99;72.66
30873;BME280;17579;42.690;2.586;2022-12-13T07:59:40;95826.47;;;7.07;72.83
30873;BME280;17579;42.690;2.586;2022-12-13T08:02:07;95826.63;;;7.14;73.00
30873;BME280;17579;42.690;2.586;2022-12-13T08:04:37;95828.66;;;7.20;72.82
30873;BME280;17579;42.690;2.586;2022-12-13T08:07:05;95828.00;;;7.26;72.99
30873;BME280;17579;42.690;2.586;2022-12-13T08:09:31;95819.31;;;7.34;73.15
30873;BME280;17579;42.690;2.586;2022-12-13T08:11:56;95828.19;;;7.41;72.95
30873;BME280;17579;42.690;2.586;2022-12-13T08:14:22;95824.78;;;7.49;73.13
30873;BME280;17579;42.690;2.586;2022-12-13T08:16:48;95826.75;;;7.55;73.21
30873;BME280;17579;42.690;2.586;2022-12-13T08:19:13;95829.59;;;7.61;73.44
30873;BME280;17579;42.690;2.586;2022-12-13T08:21:40;95837.63;;;7.68;73.42
30873;BME280;17579;42.690;2.586;2022-12-13T08:24:05;95838.31;;;7.78;74.08
30873;BME280;17579;42.690;2.586;2022-12-13T08:26:32;95839.13;;;7.87;74.07
30873;BME280;17579;42.690;2.586;2022-12-13T08:28:57;95834.06;;;7.94;74.17
30873;BME280;17579;42.690;2.586;2022-12-13T08:31:24;95826.81;;;8.04;74.33
30873;BME280;17579;42.690;2.586;2022-12-13T08:33:50;95838.31;;;8.11;74.46
30873;BME280;17579;42.690;2.586;2022-12-13T08:36:16;95827.00;;;8.19;74.49
30873;BME280;17579;42.690;2.586;2022-12-13T08:38:43;95823.69;;;8.25;74.57
30873;BME280;17579;42.690;2.586;2022-12-13T08:41:09;95824.31;;;8.36;74.88
30873;BME280;17579;42.690;2.586;2022-12-13T08:43:35;95830.78;;;8.49;75.20
30873;BME280;17579;42.690;2.586;2022-12-13T08:46:01;95824.19;;;8.54;75.01
30873;BME280;17579;42.690;2.586;2022-12-13T08:48:26;95831.75;;;8.57;75.31
30873;BME280;17579;42.690;2.586;2022-12-13T08:50:52;95835.03;;;8.59;75.18
30873;BME280;17579;42.690;2.586;2022-12-13T08:53:18;95839.97;;;8.62;75.13
30873;BME280;17579;42.690;2.586;2022-12-13T08:55:44;95850.84;;;8.67;74.89
30873;BME280;17579;42.690;2.586;2022-12-13T08:58:11;95852.16;;;8.71;74.90
30873;BME280;17579;42.690;2.586;2022-12-13T09:00:37;95857.25;;;8.73;74.80
30873;BME280;17579;42.690;2.586;2022-12-13T09:03:04;95864.19;;;8.74;74.95
30873;BME280;17579;42.690;2.586;2022-12-13T09:05:30;95862.00;;;8.77;74.73
30873;BME280;17579;42.690;2.586;2022-12-13T09:07:58;95875.53;;;8.82;74.83
30873;BME280;17579;42.690;2.586;2022-12-13T09:10:24;95867.75;;;8.89;74.99
30873;BME280;17579;42.690;2.586;2022-12-13T09:12:50;95863.94;;;9.00;75.19
30873;BME280;17579;42.690;2.586;2022-12-13T09:15:16;95862.28;;;9.07;75.24
30873;BME280;17579;42.690;2.586;2022-12-13T09:17:42;95864.53;;;9.18;75.85
30873;BME280;17579;42.690;2.586;2022-12-13T09:20:08;95862.78;;;9.42;76.52
30873;BME280;17579;42.690;2.586;2022-12-13T09:22:36;95872.13;;;9.61;76.88
30873;BME280;17579;42.690;2.586;2022-12-13T09:25:03;95870.06;;;9.71;77.17
30873;BME280;17579;42.690;2.586;2022-12-13T09:27:30;95872.50;;;9.81;77.45
30873;BME280;17579;42.690;2.586;2022-12-13T09:29:56;95879.59;;;9.81;76.81
30873;BME280;17579;42.690;2.586;2022-12-13T09:32:23;95889.69;;;9.77;76.48
30873;BME280;17579;42.690;2.586;2022-12-13T09:34:49;95893.50;;;9.75;76.31
30873;BME280;17579;42.690;2.586;2022-12-13T09:37:16;95881.94;;;9.76;76.75
30873;BME280;17579;42.690;2.586;2022-12-13T09:39:41;95884.19;;;9.87;76.87
30873;BME280;17579;42.690;2.586;2022-12-13T09:42:21;95898.56;;;9.84;76.42
30873;BME280;17579;42.690;2.586;2022-12-13T09:44:57;95902.34;;;9.82;76.39
30873;BME280;17579;42.690;2.586;2022-12-13T09:47:31;95903.84;;;9.84;76.60
30873;BME280;17579;42.690;2.586;2022-12-13T09:49:59;95899.50;;;9.92;76.62
30873;BME280;17579;42.690;2.586;2022-12-13T09:52:29;95906.38;;;10.01;77.11
30873;BME280;17579;42.690;2.586;2022-12-13T09:54:58;95905.78;;;10.14;77.39
30873;BME280;17579;42.690;2.586;2022-12-13T09:57:29;95903.28;;;10.20;77.09
30873;BME280;17579;42.690;2.586;2022-12-13T09:59:56;95917.72;;;10.33;77.21
30873;BME280;17579;42.690;2.586;2022-12-13T10:02:28;95918.41;;;10.35;77.06
30873;BME280;17579;42.690;2.586;2022-12-13T10:07:44;95901.72;;;10.34;76.43
30873;BME280;17579;42.690;2.586;2022-12-13T10:10:12;95911.78;;;10.31;76.39
30873;BME280;17579;42.690;2.586;2022-12-13T10:12:40;95913.44;;;10.32;76.44
30873;BME280;17579;42.690;2.586;2022-12-13T10:15:07;95917.72;;;10.33;76.27
30873;BME280;17579;42.690;2.586;2022-12-13T10:17:37;95929.31;;;10.32;76.18
30873;BME280;17579;42.690;2.586;2022-12-13T10:20:06;95913.94;;;10.35;76.34
30873;BME280;17579;42.690;2.586;2022-12-13T10:22:32;95920.34;;;10.41;76.46
30873;BME280;17579;42.690;2.586;2022-12-13T10:25:00;95901.47;;;10.44;76.30
30873;BME280;17579;42.690;2.586;2022-12-13T10:27:42;95893.28;;;10.31;75.93
30873;BME280;17579;42.690;2.586;2022-12-13T10:30:19;95906.19;;;10.26;75.50
30873;BME280;17579;42.690;2.586;2022-12-13T10:33:08;95887.84;;;10.09;75.47
30873;BME280;17579;42.690;2.586;2022-12-13T10:35:43;95871.00;;;10.10;75.19
30873;BME280;17579;42.690;2.586;2022-12-13T10:38:29;95883.09;;;10.04;75.23
30873;BME280;17579;42.690;2.586;2022-12-13T10:40:56;95888.66;;;10.10;75.35
30873;BME280;17579;42.690;2.586;2022-12-13T10:43:22;95890.47;;;10.09;75.17
30873;BME280;17579;42.690;2.586;2022-12-13T10:46:13;95880.25;;;10.06;75.43
30873;BME280;17579;42.690;2.586;2022-12-13T10:48:49;95878.25;;;10.08;75.08
30873;BME280;17579;42.690;2.586;2022-12-13T10:51:18;95875.63;;;10.08;75.54
30873;BME280;17579;42.690;2.586;2022-12-13T10:53:54;95870.50;;;10.06;75.45
30873;BME280;17579;42.690;2.586;2022-12-13T10:56:22;95861.53;;;10.16;75.80
30873;BME280;17579;42.690;2.586;2022-12-13T11:01:54;95869.84;;;10.36;76.20
30873;BME280;17579;42.690;2.586;2022-12-13T11:04:32;95866.84;;;10.39;76.47
30873;BME280;17579;42.690;2.586;2022-12-13T11:07:00;95864.75;;;10.49;76.50
30873;BME280;17579;42.690;2.586;2022-12-13T11:09:32;95866.88;;;10.54;76.22
30873;BME280;17579;42.690;2.586;2022-12-13T11:12:00;95871.03;;;10.48;75.68
30873;BME280;17579;42.690;2.586;2022-12-13T11:14:30;95869.31;;;10.40;75.26
30873;BME280;17579;42.690;2.586;2022-12-13T11:16:59;95871.47;;;10.37;75.40
30873;BME280;17579;42.690;2.586;2022-12-13T11:19:38;95870.69;;;10.28;75.10
30873;BME280;17579;42.690;2.586;2022-12-13T11:22:07;95877.31;;;10.24;74.47
30873;BME280;17579;42.690;2.586;2022-12-13T11:24:37;95886.50;;;10.13;74.48
30873;BME280;17579;42.690;2.586;2022-12-13T11:27:24;95887.53;;;10.04;74.49
30873;BME280;17579;42.690;2.586;2022-12-13T11:30:12;95880.31;;;9.98;74.24
30873;BME280;17579;42.690;2.586;2022-12-13T11:38:50;95878.97;;;10.02;74.32
30873;BME280;17579;42.690;2.586;2022-12-13T11:47:00;95871.22;;;10.00;73.79
30873;BME280;17579;42.690;2.586;2022-12-13T11:49:39;95867.63;;;9.93;74.10
30873;BME280;17579;42.690;2.586;2022-12-13T11:52:27;95871.09;;;9.94;74.34
30873;BME280;17579;42.690;2.586;2022-12-13T11:55:02;95871.22;;;10.00;74.03
30873;BME280;17579;42.690;2.586;2022-12-13T11:57:40;95872.38;;;9.98;73.90
30873;BME280;17579;42.690;2.586;2022-12-13T12:00:36;95863.81;;;9.96;74.07
30873;BME280;17579;42.690;2.586;2022-12-13T12:03:16;95859.47;;;10.03;74.32
30873;BME280;17579;42.690;2.586;2022-12-13T12:05:56;95849.56;;;10.05;74.30
30873;BME280;17579;42.690;2.586;2022-12-13T12:08:36;95854.03;;;10.04;74.32
30873;BME280;17579;42.690;2.586;2022-12-13T12:11:16;95852.38;;;10.03;74.38
30873;BME280;17579;42.690;2.586;2022-12-13T12:13:51;95853.50;;;10.09;74.29
30873;BME280;17579;42.690;2.586;2022-12-13T12:19:18;95844.22;;;10.13;74.01
30873;BME280;17579;42.690;2.586;2022-12-13T12:24:54;95838.22;;;10.19;74.46
30873;BME280;17579;42.690;2.586;2022-12-13T12:27:36;95837.50;;;10.26;74.40
30873;BME280;17579;42.690;2.586;2022-12-13T12:30:23;95842.97;;;10.24;74.67
30873;BME280;17579;42.690;2.586;2022-12-13T12:33:05;95845.22;;;10.35;74.84
30873;BME280;17579;42.690;2.586;2022-12-13T12:35:57;95850.50;;;10.35;74.69
30873;BME280;17579;42.690;2.586;2022-12-13T12:41:31;95853.63;;;10.39;74.74
30873;BME280;17579;42.690;2.586;2022-12-13T12:50:05;95856.66;;;10.28;74.80
30873;BME280;17579;42.690;2.586;2022-12-13T12:55:51;95852.47;;;10.33;74.79
30873;BME280;17579;42.690;2.586;2022-12-13T12:58:46;95852.84;;;10.30;74.68
30873;BME280;17579;42.690;2.586;2022-12-13T13:04:15;95836.81;;;10.32;74.18
30873;BME280;17579;42.690;2.586;2022-12-13T13:06:45;95839.50;;;10.23;74.14
30873;BME280;17579;42.690;2.586;2022-12-13T13:09:16;95838.56;;;10.16;74.14
30873;BME280;17579;42.690;2.586;2022-12-13T13:11:43;95826.72;;;10.12;74.18
30873;BME280;17579;42.690;2.586;2022-12-13T13:14:32;95820.66;;;10.03;74.25
30873;BME280;17579;42.690;2.586;2022-12-13T13:17:00;95823.31;;;10.03;73.83
30873;BME280;17579;42.690;2.586;2022-12-13T13:19:47;95821.22;;;9.99;73.51
30873;BME280;17579;42.690;2.586;2022-12-13T13:22:26;95811.41;;;9.84;73.88
30873;BME280;17579;42.690;2.586;2022-12-13T13:25:21;95817.03;;;9.81;73.84
30873;BME280;17579;42.690;2.586;2022-12-13T13:27:48;95818.50;;;9.84;73.47
30873;BME280;17579;42.690;2.586;2022-12-13T13:30:23;95821.03;;;9.77;73.93
30873;BME280;17579;42.690;2.586;2022-12-13T13:32:51;95829.75;;;9.78;73.78
30873;BME280;17579;42.690;2.586;2022-12-13T13:35:45;95823.72;;;9.69;73.96
30873;BME280;17579;42.690;2.586;2022-12-13T13:38:46;95834.28;;;9.69;73.73
30873;BME280;17579;42.690;2.586;2022-12-13T13:41:37;95842.19;;;9.69;73.67
30873;BME280;17579;42.690;2.586;2022-12-13T13:44:32;95842.91;;;9.63;73.68
30873;BME280;17579;42.690;2.586;2022-12-13T13:50:21;95839.31;;;9.56;73.61
30873;BME280;17579;42.690;2.586;2022-12-13T13:55:59;95855.00;;;9.49;73.49
30873;BME280;17579;42.690;2.586;2022-12-13T14:10:30;95863.63;;;9.43;73.56
30873;BME280;17579;42.690;2.586;2022-12-13T14:16:30;95858.88;;;9.38;73.68
30873;BME280;17579;42.690;2.586;2022-12-13T14:22:17;95868.75;;;9.36;73.39
30873;BME280;17579;42.690;2.586;2022-12-13T14:27:52;95871.56;;;9.34;73.42
30873;BME280;17579;42.690;2.586;2022-12-13T14:30:21;95874.38;;;9.33;73.52
30873;BME280;17579;42.690;2.586;2022-12-13T14:32:48;95868.44;;;9.31;73.63
30873;BME280;17579;42.690;2.586;2022-12-13T14:35:28;95874.06;;;9.28;73.65
30873;BME280;17579;42.690;2.586;2022-12-13T14:37:59;95865.47;;;9.34;73.54
30873;BME280;17579;42.690;2.586;2022-12-13T14:43:33;95855.41;;;9.29;73.54
30873;BME280;17579;42.690;2.586;2022-12-13T14:46:02;95850.81;;;9.31;73.34